Crown Princess — ZCDM6 — position and weather

sailwx.info

Track history (hours):
 
Tides and Currents Weather Stations Pressure Air Temp Water Temp Dewpoint Dewpoint Depression Visibility Wind Speed Wind Dir Waves Ship Positions

Crown Princess

Last reported at 2017-Sep-20 17:00 UTC. Time now 2017-Sep-23 14:50 UTC.
Position N 43°54' W 066°54'.

Type: Ship. MMSI: 310500000.

Wind from 030 at 22 knots

Barometer 1013.0 mb
Air temperature 18.5 ° C
Visibility: greater than 10.8 NM
Dewpoint 16.9 ° C
Water temperature 15.0 ° C

Date/timePositionNaut miles runAvg speedWind from/ knotsBaromVisibWave heightAir tempDewpointWater temp
2017-Sep-20 17:00N 43°54' W 066°54'14311.3 030 / 221013.010.8 18.516.915.0
2017-Sep-20 04:16N 42°52' W 069°52'519.3
2017-Sep-20 04:00N 42°48' W 069°57'1019.2
2017-Sep-20 03:30N 42°42' W 070°06'1020.1
2017-Sep-20 03:00N 42°35' W 070°17'1020.1
2017-Sep-20 02:30N 42°30' W 070°28'1019.7
2017-Sep-20 02:01N 42°25' W 070°40'816.1
2017-Sep-20 01:31N 42°24' W 070°51'510.1
2017-Sep-20 01:00N 42°21' W 070°56'3 6.9
2017-Sep-20 00:30N 42°21' W 071°01'1 1.8
2017-Sep-20 00:00N 42°21' W 071°02'0 0.0
2017-Sep-19 23:29N 42°21' W 071°02'0 0.0
2017-Sep-19 22:59N 42°21' W 071°02'0 0.0
2017-Sep-19 22:29N 42°21' W 071°02'0 0.0
2017-Sep-19 21:58N 42°21' W 071°02'0 0.0
2017-Sep-19 21:28N 42°21' W 071°02'0 0.0
2017-Sep-19 20:58N 42°21' W 071°02'0 0.0
2017-Sep-19 20:28N 42°21' W 071°02'0 0.0
2017-Sep-19 20:00N 42°21' W 071°02'0 0.0
2017-Sep-19 19:30N 42°21' W 071°02'0 0.0
2017-Sep-19 19:00N 42°21' W 071°02'0 0.0
2017-Sep-19 18:30N 42°21' W 071°02'0 0.0
2017-Sep-19 18:00N 42°21' W 071°02'0 0.0
2017-Sep-19 17:29N 42°21' W 071°02'0 0.0
2017-Sep-19 16:59N 42°21' W 071°02'0 0.0
2017-Sep-19 16:29N 42°21' W 071°02'0 0.0
2017-Sep-19 15:59N 42°21' W 071°02'0 0.0
2017-Sep-19 15:28N 42°21' W 071°02'0 0.1
2017-Sep-19 15:00N 42°21' W 071°02'1 1.5
2017-Sep-19 14:31N 42°21' W 071°01'3 5.3
2017-Sep-19 14:00N 42°20' W 070°57'611.8
2017-Sep-19 13:30N 42°24' W 070°51'612.4
2017-Sep-19 13:00N 42°23' W 070°43'1019.6
2017-Sep-19 12:30N 42°21' W 070°29'1121.6
2017-Sep-19 12:00N 42°20' W 070°15'1121.7
2017-Sep-19 11:30N 42°19' W 070°00'1121.2
2017-Sep-19 10:58N 42°09' W 069°53'1021.5
2017-Sep-19 10:30N 42°00' W 069°47'1019.7
2017-Sep-19 10:00N 41°51' W 069°41'1018.1
2017-Sep-19 09:29N 41°43' W 069°35'1019.7
2017-Sep-19 08:57N 41°33' W 069°29'1421.3
2017-Sep-19 08:17N 41°21' W 069°20'820.6
2017-Sep-19 07:53N 41°13' W 069°15'1219.5
2017-Sep-19 07:17N 41°03' W 069°08'3917.1
2017-Sep-19 05:00N 40°24' W 069°12'5919.8 060 / 241016.8 5.4 20.519.720.0
2017-Sep-19 02:00N 40°24' W 070°30'4622.0 060 / 271017.8 5.4 21.020.220.0
2017-Sep-18 23:55N 40°56' W 071°13'818.2
2017-Sep-18 23:30N 41°01' W 071°20'1017.5
2017-Sep-18 22:57N 41°10' W 071°25'19 1.6
2017-Sep-18 10:42N 41°29' W 071°21'1 4.3
2017-Sep-18 10:28N 41°28' W 071°21'12111.6
2017-Sep-18 00:03N 40°25' W 073°38'114.7
2017-Sep-18 00:00N 40°26' W 073°39'714.1
2017-Sep-17 23:29N 40°27' W 073°49'715.5
2017-Sep-17 23:00N 40°30' W 073°57'714.9
2017-Sep-17 22:30N 40°36' W 074°03'5 9.3
2017-Sep-17 22:00N 40°41' W 074°01'0 0.2
2017-Sep-17 21:29N 40°41' W 074°01'0 0.0
2017-Sep-17 20:59N 40°41' W 074°01'0 0.0
2017-Sep-17 20:29N 40°41' W 074°01'0 0.0
2017-Sep-17 19:59N 40°41' W 074°01'0 0.0
2017-Sep-17 19:29N 40°41' W 074°01'0 0.0
2017-Sep-17 18:58N 40°41' W 074°01'0 0.0
2017-Sep-17 18:28N 40°41' W 074°01'0 0.0
2017-Sep-17 17:58N 40°41' W 074°01'0 0.0
2017-Sep-17 17:28N 40°41' W 074°01'0 0.0
2017-Sep-17 16:58N 40°41' W 074°01'0 0.0
2017-Sep-17 16:30N 40°41' W 074°01'0 0.0
2017-Sep-17 16:00N 40°41' W 074°01'0 0.0
2017-Sep-17 15:30N 40°41' W 074°01'0 0.0
2017-Sep-17 15:00N 40°41' W 074°01'0 0.0
2017-Sep-17 14:29N 40°41' W 074°01'0 0.0
2017-Sep-17 13:56N 40°41' W 074°01'0 0.0
2017-Sep-17 13:29N 40°41' W 074°01'0 0.0
2017-Sep-17 12:59N 40°41' W 074°01'0 0.0
2017-Sep-17 12:29N 40°41' W 074°01'0 0.0
2017-Sep-17 11:58N 40°41' W 074°01'0 0.0
2017-Sep-17 11:28N 40°41' W 074°01'0 0.0
2017-Sep-17 10:58N 40°41' W 074°01'0 0.0
2017-Sep-17 10:28N 40°41' W 074°01'0 0.1
2017-Sep-17 10:00N 40°41' W 074°01'1 2.2
2017-Sep-17 09:30N 40°40' W 074°02'3 5.5
2017-Sep-17 09:00N 40°38' W 074°03'4 8.4
2017-Sep-17 08:30N 40°34' W 074°02'510.0
2017-Sep-17 08:00N 40°30' W 073°57'511.1
2017-Sep-17 07:30N 40°28' W 073°51'5 9.2
2017-Sep-17 07:00N 40°27' W 073°45'713.1
2017-Sep-17 06:30N 40°27' W 073°36'816.4
2017-Sep-17 06:00N 40°28' W 073°26'816.3
2017-Sep-17 05:30N 40°29' W 073°15'816.2
2017-Sep-17 05:00N 40°29' W 073°04'815.6
2017-Sep-17 04:30N 40°30' W 072°54'713.6
2017-Sep-17 04:00N 40°30' W 072°45'917.4
2017-Sep-17 03:31N 40°30' W 072°34'917.5
2017-Sep-17 03:01N 40°31' W 072°22'917.5
2017-Sep-17 02:29N 40°31' W 072°10'1018.0
2017-Sep-17 01:56N 40°31' W 071°57'716.7
2017-Sep-17 01:31N 40°31' W 071°48'917.5
2017-Sep-17 01:01N 40°31' W 071°36'917.7
2017-Sep-17 00:30N 40°31' W 071°24'1517.4
2017-Sep-16 23:39N 40°32' W 071°05'317.3
2017-Sep-16 23:29N 40°32' W 071°01'817.7
2017-Sep-16 23:00N 40°32' W 070°50'  
2017-Sep-13 19:40N 47°34' W 052°41'1 3.0
2017-Sep-13 19:29N 47°34' W 052°42'0 0.1
2017-Sep-13 18:52N 47°34' W 052°42'0 0.0
2017-Sep-13 18:27N 47°34' W 052°42'0 0.0
2017-Sep-13 17:57N 47°34' W 052°42'0 0.0
2017-Sep-13 17:27N 47°34' W 052°42'0 0.0
2017-Sep-13 16:57N 47°34' W 052°42'0 0.0
2017-Sep-13 16:26N 47°34' W 052°42'0 0.0
2017-Sep-13 15:56N 47°34' W 052°42'0 0.0
2017-Sep-13 15:26N 47°34' W 052°42'0 0.0
2017-Sep-13 14:56N 47°34' W 052°42'0 0.0
2017-Sep-13 14:26N 47°34' W 052°42'0 0.0
2017-Sep-13 13:55N 47°34' W 052°42'0 0.0
2017-Sep-13 13:28N 47°34' W 052°42'0 0.0
2017-Sep-13 12:55N 47°34' W 052°42'0 0.0
2017-Sep-13 11:55N 47°34' W 052°42'0 0.0
2017-Sep-13 11:24N 47°34' W 052°42'0 0.0
2017-Sep-13 10:48N 47°34' W 052°42'0 0.0
2017-Sep-13 10:30N 47°34' W 052°42'1 1.5
2017-Sep-13 10:00N 47°34' W 052°41'4 7.3
2017-Sep-13 09:28N 47°34' W 052°35'714.6
2017-Sep-13 08:57N 47°34' W 052°24'815.0
2017-Sep-13 08:27N 47°36' W 052°13'715.1
2017-Sep-13 08:00N 47°37' W 052°03'814.9
2017-Sep-13 07:27N 47°38' W 051°51'34513.1
2017-Sep-12 05:00N 50°42' W 044°24'   020 / 151014.010.8 12.5 8.516.2
Track history (hours):
 
Tides and Currents Weather Stations Pressure Air Temp Water Temp Dewpoint Dewpoint Depression Visibility Wind Speed Wind Dir Waves Ship Positions

Crown Princess

Last reported at 2017-Sep-20 17:00 UTC. Time now 2017-Sep-23 14:50 UTC.
Position N 43°54' W 066°54'.

Type: Ship. MMSI: 310500000.

Wind from 030 at 22 knots

Barometer 1013.0 mb
Air temperature 18.5 ° C
Visibility: greater than 10.8 NM
Dewpoint 16.9 ° C
Water temperature 15.0 ° C

Date/timePositionNaut miles runAvg speedWind from/ knotsBaromVisibWave heightAir tempDewpointWater temp
2017-Sep-20 17:00N 43°54' W 066°54'14311.3 030 / 221013.010.8 18.516.915.0
2017-Sep-20 04:16N 42°52' W 069°52'519.3
2017-Sep-20 04:00N 42°48' W 069°57'1019.2
2017-Sep-20 03:30N 42°42' W 070°06'1020.1
2017-Sep-20 03:00N 42°35' W 070°17'1020.1
2017-Sep-20 02:30N 42°30' W 070°28'1019.7
2017-Sep-20 02:01N 42°25' W 070°40'816.1
2017-Sep-20 01:31N 42°24' W 070°51'510.1
2017-Sep-20 01:00N 42°21' W 070°56'3 6.9
2017-Sep-20 00:30N 42°21' W 071°01'1 1.8
2017-Sep-20 00:00N 42°21' W 071°02'0 0.0
2017-Sep-19 23:29N 42°21' W 071°02'0 0.0
2017-Sep-19 22:59N 42°21' W 071°02'0 0.0
2017-Sep-19 22:29N 42°21' W 071°02'0 0.0
2017-Sep-19 21:58N 42°21' W 071°02'0 0.0
2017-Sep-19 21:28N 42°21' W 071°02'0 0.0
2017-Sep-19 20:58N 42°21' W 071°02'0 0.0
2017-Sep-19 20:28N 42°21' W 071°02'0 0.0
2017-Sep-19 20:00N 42°21' W 071°02'0 0.0
2017-Sep-19 19:30N 42°21' W 071°02'0 0.0
2017-Sep-19 19:00N 42°21' W 071°02'0 0.0
2017-Sep-19 18:30N 42°21' W 071°02'0 0.0
2017-Sep-19 18:00N 42°21' W 071°02'0 0.0
2017-Sep-19 17:29N 42°21' W 071°02'0 0.0
2017-Sep-19 16:59N 42°21' W 071°02'0 0.0
2017-Sep-19 16:29N 42°21' W 071°02'0 0.0
2017-Sep-19 15:59N 42°21' W 071°02'0 0.0
2017-Sep-19 15:28N 42°21' W 071°02'0 0.1
2017-Sep-19 15:00N 42°21' W 071°02'1 1.5
2017-Sep-19 14:31N 42°21' W 071°01'3 5.3
2017-Sep-19 14:00N 42°20' W 070°57'611.8
2017-Sep-19 13:30N 42°24' W 070°51'612.4
2017-Sep-19 13:00N 42°23' W 070°43'1019.6
2017-Sep-19 12:30N 42°21' W 070°29'1121.6
2017-Sep-19 12:00N 42°20' W 070°15'1121.7
2017-Sep-19 11:30N 42°19' W 070°00'1121.2
2017-Sep-19 10:58N 42°09' W 069°53'1021.5
2017-Sep-19 10:30N 42°00' W 069°47'1019.7
2017-Sep-19 10:00N 41°51' W 069°41'1018.1
2017-Sep-19 09:29N 41°43' W 069°35'1019.7
2017-Sep-19 08:57N 41°33' W 069°29'1421.3
2017-Sep-19 08:17N 41°21' W 069°20'820.6
2017-Sep-19 07:53N 41°13' W 069°15'1219.5
2017-Sep-19 07:17N 41°03' W 069°08'3917.1
2017-Sep-19 05:00N 40°24' W 069°12'5919.8 060 / 241016.8 5.4 20.519.720.0
2017-Sep-19 02:00N 40°24' W 070°30'4622.0 060 / 271017.8 5.4 21.020.220.0
2017-Sep-18 23:55N 40°56' W 071°13'818.2
2017-Sep-18 23:30N 41°01' W 071°20'1017.5
2017-Sep-18 22:57N 41°10' W 071°25'19 1.6
2017-Sep-18 10:42N 41°29' W 071°21'1 4.3
2017-Sep-18 10:28N 41°28' W 071°21'12111.6
2017-Sep-18 00:03N 40°25' W 073°38'114.7
2017-Sep-18 00:00N 40°26' W 073°39'714.1
2017-Sep-17 23:29N 40°27' W 073°49'715.5
2017-Sep-17 23:00N 40°30' W 073°57'714.9
2017-Sep-17 22:30N 40°36' W 074°03'5 9.3
2017-Sep-17 22:00N 40°41' W 074°01'0 0.2
2017-Sep-17 21:29N 40°41' W 074°01'0 0.0
2017-Sep-17 20:59N 40°41' W 074°01'0 0.0
2017-Sep-17 20:29N 40°41' W 074°01'0 0.0
2017-Sep-17 19:59N 40°41' W 074°01'0 0.0
2017-Sep-17 19:29N 40°41' W 074°01'0 0.0
2017-Sep-17 18:58N 40°41' W 074°01'0 0.0
2017-Sep-17 18:28N 40°41' W 074°01'0 0.0
2017-Sep-17 17:58N 40°41' W 074°01'0 0.0
2017-Sep-17 17:28N 40°41' W 074°01'0 0.0
2017-Sep-17 16:58N 40°41' W 074°01'0 0.0
2017-Sep-17 16:30N 40°41' W 074°01'0 0.0
2017-Sep-17 16:00N 40°41' W 074°01'0 0.0
2017-Sep-17 15:30N 40°41' W 074°01'0 0.0
2017-Sep-17 15:00N 40°41' W 074°01'0 0.0
2017-Sep-17 14:29N 40°41' W 074°01'0 0.0
2017-Sep-17 13:56N 40°41' W 074°01'0 0.0
2017-Sep-17 13:29N 40°41' W 074°01'0 0.0
2017-Sep-17 12:59N 40°41' W 074°01'0 0.0
2017-Sep-17 12:29N 40°41' W 074°01'0 0.0
2017-Sep-17 11:58N 40°41' W 074°01'0 0.0
2017-Sep-17 11:28N 40°41' W 074°01'0 0.0
2017-Sep-17 10:58N 40°41' W 074°01'0 0.0
2017-Sep-17 10:28N 40°41' W 074°01'0 0.1
2017-Sep-17 10:00N 40°41' W 074°01'1 2.2
2017-Sep-17 09:30N 40°40' W 074°02'3 5.5
2017-Sep-17 09:00N 40°38' W 074°03'4 8.4
2017-Sep-17 08:30N 40°34' W 074°02'510.0
2017-Sep-17 08:00N 40°30' W 073°57'511.1
2017-Sep-17 07:30N 40°28' W 073°51'5 9.2
2017-Sep-17 07:00N 40°27' W 073°45'713.1
2017-Sep-17 06:30N 40°27' W 073°36'816.4
2017-Sep-17 06:00N 40°28' W 073°26'816.3
2017-Sep-17 05:30N 40°29' W 073°15'816.2
2017-Sep-17 05:00N 40°29' W 073°04'815.6
2017-Sep-17 04:30N 40°30' W 072°54'713.6
2017-Sep-17 04:00N 40°30' W 072°45'917.4
2017-Sep-17 03:31N 40°30' W 072°34'917.5
2017-Sep-17 03:01N 40°31' W 072°22'917.5
2017-Sep-17 02:29N 40°31' W 072°10'1018.0
2017-Sep-17 01:56N 40°31' W 071°57'716.7
2017-Sep-17 01:31N 40°31' W 071°48'917.5
2017-Sep-17 01:01N 40°31' W 071°36'917.7
2017-Sep-17 00:30N 40°31' W 071°24'1517.4
2017-Sep-16 23:39N 40°32' W 071°05'317.3
2017-Sep-16 23:29N 40°32' W 071°01'817.7
2017-Sep-16 23:00N 40°32' W 070°50'  
2017-Sep-13 19:40N 47°34' W 052°41'1 3.0
2017-Sep-13 19:29N 47°34' W 052°42'0 0.1
2017-Sep-13 18:52N 47°34' W 052°42'0 0.0
2017-Sep-13 18:27N 47°34' W 052°42'0 0.0
2017-Sep-13 17:57N 47°34' W 052°42'0 0.0
2017-Sep-13 17:27N 47°34' W 052°42'0 0.0
2017-Sep-13 16:57N 47°34' W 052°42'0 0.0
2017-Sep-13 16:26N 47°34' W 052°42'0 0.0
2017-Sep-13 15:56N 47°34' W 052°42'0 0.0
2017-Sep-13 15:26N 47°34' W 052°42'0 0.0
2017-Sep-13 14:56N 47°34' W 052°42'0 0.0
2017-Sep-13 14:26N 47°34' W 052°42'0 0.0
2017-Sep-13 13:55N 47°34' W 052°42'0 0.0
2017-Sep-13 13:28N 47°34' W 052°42'0 0.0
2017-Sep-13 12:55N 47°34' W 052°42'0 0.0
2017-Sep-13 11:55N 47°34' W 052°42'0 0.0
2017-Sep-13 11:24N 47°34' W 052°42'0 0.0
2017-Sep-13 10:48N 47°34' W 052°42'0 0.0
2017-Sep-13 10:30N 47°34' W 052°42'1 1.5
2017-Sep-13 10:00N 47°34' W 052°41'4 7.3
2017-Sep-13 09:28N 47°34' W 052°35'714.6
2017-Sep-13 08:57N 47°34' W 052°24'815.0
2017-Sep-13 08:27N 47°36' W 052°13'715.1
2017-Sep-13 08:00N 47°37' W 052°03'814.9
2017-Sep-13 07:27N 47°38' W 051°51'34513.1
2017-Sep-12 05:00N 50°42' W 044°24'   020 / 151014.010.8 12.5 8.516.2

Dump ship's entire track history